Time;durP1;ratioP1;P1;durP2;ratioP2;P2;SDS_P1;SDS_P2;PMS_P1;PMS_P2;Temp;Humidity;BMP_temperature;BMP_pressure;BME280_temperature;BME280_humidity;BME280_pressure;Samples;Min_cycle;Max_cycle;Signal;HPM_P1;HPM_P2
2023/10/29 00:01:08;;;;;;;4.30;2.73;;;13.00;94.50;;;;;;756376;187;26571;-83
2023/10/29 00:03:35;;;;;;;3.63;2.53;;;13.00;94.40;;;;;;754351;190;26555;-86
2023/10/29 00:06:02;;;;;;;5.67;3.17;;;13.00;94.50;;;;;;752177;187;26570;-87
2023/10/29 00:08:28;;;;;;;4.10;2.80;;;13.00;94.70;;;;;;767074;187;27100;-86
2023/10/29 00:10:59;;;;;;;7.70;2.60;;;13.00;94.50;;;;;;768066;187;27145;-86
2023/10/29 00:13:32;;;;;;;4.27;2.50;;;13.10;94.60;;;;;;767784;186;28152;-87
2023/10/29 00:15:58;;;;;;;5.10;2.60;;;13.10;94.60;;;;;;769271;187;26506;-88
2023/10/29 00:18:25;;;;;;;4.03;2.83;;;13.10;94.60;;;;;;761009;186;27076;-87
2023/10/29 00:20:51;;;;;;;5.03;2.70;;;13.20;94.30;;;;;;759628;189;26529;-84
2023/10/29 00:23:18;;;;;;;5.27;2.60;;;13.20;94.40;;;;;;765858;185;26496;-87
2023/10/29 00:25:50;;;;;;;4.23;3.13;;;13.10;94.30;;;;;;754507;190;26606;-85
2023/10/29 00:28:21;;;;;;;4.77;2.60;;;13.10;94.10;;;;;;756350;183;26509;-87
2023/10/29 00:30:48;;;;;;;5.43;2.80;;;13.10;94.20;;;;;;748235;192;26548;-81
2023/10/29 00:33:15;;;;;;;3.90;2.43;;;13.10;94.30;;;;;;748622;187;27054;-83
2023/10/29 00:35:43;;;;;;;5.07;2.60;;;13.10;94.20;;;;;;767083;187;26535;-87
2023/10/29 00:38:13;;;;;;;5.90;2.73;;;13.10;94.50;;;;;;767401;184;26506;-83
2023/10/29 00:40:40;;;;;;;5.93;3.10;;;13.10;94.40;;;;;;750787;189;26518;-87
2023/10/29 00:43:07;;;;;;;5.27;2.63;;;13.10;94.50;;;;;;765905;184;26494;-84
2023/10/29 00:45:34;;;;;;;5.87;2.43;;;13.10;94.30;;;;;;765794;187;27089;-82
2023/10/29 00:48:03;;;;;;;4.53;2.50;;;13.10;94.30;;;;;;765363;183;26512;-84
2023/10/29 00:50:33;;;;;;;5.80;2.30;;;13.20;94.40;;;;;;747941;188;27153;-84
2023/10/29 00:53:02;;;;;;;5.67;2.83;;;13.20;94.10;;;;;;747976;192;27097;-85
2023/10/29 00:55:36;;;;;;;4.97;2.63;;;13.10;93.90;;;;;;748024;192;26593;-85
2023/10/29 00:58:02;;;;;;;4.57;3.10;;;13.10;94.10;;;;;;761002;185;26566;-87
2023/10/29 01:00:31;;;;;;;4.57;2.33;;;13.10;94.10;;;;;;765335;185;27036;-85
2023/10/29 01:03:00;;;;;;;5.67;2.50;;;13.20;94.50;;;;;;765726;186;26494;-85
2023/10/29 01:05:27;;;;;;;4.30;2.77;;;13.20;94.40;;;;;;764789;187;26579;-85
2023/10/29 01:07:56;;;;;;;3.33;2.10;;;13.10;94.40;;;;;;761456;187;27044;-84
2023/10/29 01:10:24;;;;;;;5.70;2.60;;;13.20;94.30;;;;;;754579;189;26538;-87
2023/10/29 01:12:56;;;;;;;4.03;2.30;;;13.10;94.50;;;;;;770603;182;26495;-84
2023/10/29 01:15:32;;;;;;;3.13;2.20;;;13.10;94.40;;;;;;770388;186;26518;-84
2023/10/29 01:18:04;;;;;;;3.33;2.30;;;13.20;94.10;;;;;;752384;186;26592;-85
2023/10/29 01:20:30;;;;;;;5.93;2.97;;;13.20;93.80;;;;;;769602;187;26561;-85
2023/10/29 01:23:00;;;;;;;5.23;2.87;;;13.30;93.70;;;;;;768422;184;26569;-85
2023/10/29 01:25:31;;;;;;;4.53;3.20;;;13.40;93.20;;;;;;763569;184;27106;-84
2023/10/29 01:28:02;;;;;;;4.63;2.27;;;13.40;93.10;;;;;;767331;186;27040;-85
2023/10/29 01:30:31;;;;;;;4.03;2.20;;;13.60;92.40;;;;;;767771;187;26497;-88
2023/10/29 01:33:00;;;;;;;5.70;2.03;;;13.70;92.30;;;;;;761683;186;26495;-85
2023/10/29 01:35:31;;;;;;;4.23;2.17;;;13.80;91.50;;;;;;766569;187;26490;-86
2023/10/29 01:38:04;;;;;;;4.13;1.97;;;13.90;91.40;;;;;;768615;184;27100;-85
2023/10/29 01:40:35;;;;;;;4.07;1.63;;;14.00;91.20;;;;;;768167;186;26529;-87
2023/10/29 01:43:05;;;;;;;2.97;1.70;;;14.00;90.80;;;;;;768236;186;26534;-85
2023/10/29 01:45:37;;;;;;;2.27;1.60;;;14.10;90.50;;;;;;767956;184;27073;-84
2023/10/29 01:48:04;;;;;;;3.10;1.83;;;14.10;90.50;;;;;;766737;184;26513;-84
2023/10/29 01:50:32;;;;;;;4.03;1.60;;;14.20;90.10;;;;;;766719;184;26503;-85
2023/10/29 01:53:01;;;;;;;2.77;1.80;;;14.10;90.20;;;;;;766798;185;28089;-85
2023/10/29 01:55:34;;;;;;;3.13;1.57;;;14.10;90.30;;;;;;766761;184;26524;-85
2023/10/29 01:58:05;;;;;;;4.37;2.10;;;14.10;90.20;;;;;;766338;183;26541;-85
2023/10/29 02:00:33;;;;;;;3.40;1.80;;;14.10;90.10;;;;;;766292;187;26560;-85
2023/10/29 02:03:09;;;;;;;3.97;1.80;;;14.10;90.60;;;;;;758792;187;26492;-85
2023/10/29 02:05:39;;;;;;;2.90;1.40;;;14.10;89.70;;;;;;765871;187;26487;-85
2023/10/29 02:08:11;;;;;;;2.03;1.80;;;14.20;90.40;;;;;;762543;184;27103;-85
2023/10/29 02:10:38;;;;;;;5.57;2.20;;;14.30;90.20;;;;;;758337;187;26484;-86
2023/10/29 02:13:04;;;;;;;17.20;8.30;;;14.10;91.00;;;;;;762762;186;26502;-85
2023/10/29 02:15:35;;;;;;;5.23;1.83;;;13.90;91.70;;;;;;766374;184;26500;-84
2023/10/29 02:18:08;;;;;;;4.13;1.80;;;13.80;92.20;;;;;;759082;186;28169;-88
2023/10/29 02:20:39;;;;;;;2.50;1.70;;;13.70;92.30;;;;;;763863;185;26522;-84
2023/10/29 02:23:12;;;;;;;4.13;2.00;;;13.70;92.70;;;;;;769653;186;27257;-85
2023/10/29 02:25:44;;;;;;;5.43;2.10;;;13.80;92.30;;;;;;760394;187;26566;-84
2023/10/29 02:28:20;;;;;;;3.37;1.80;;;13.70;92.30;;;;;;766687;184;26583;-85
2023/10/29 02:30:55;;;;;;;2.40;1.60;;;13.70;92.70;;;;;;766048;187;26562;-85
2023/10/29 02:33:24;;;;;;;3.23;1.90;;;13.70;92.40;;;;;;759802;187;27111;-83
2023/10/29 02:35:53;;;;;;;2.60;1.70;;;13.70;93.00;;;;;;767061;185;26572;-86
2023/10/29 02:38:28;;;;;;;3.20;1.80;;;13.70;92.70;;;;;;768647;177;27081;-84
2023/10/29 02:40:55;;;;;;;4.17;2.17;;;13.60;92.80;;;;;;763696;187;26507;-87
2023/10/29 02:43:22;;;;;;;6.17;2.27;;;13.70;92.80;;;;;;790841;180;26480;-84
2023/10/29 02:45:53;;;;;;;4.20;2.00;;;13.60;92.80;;;;;;785153;180;26459;-85
2023/10/29 02:48:21;;;;;;;3.50;1.70;;;13.70;93.00;;;;;;781045;183;26562;-85
2023/10/29 02:50:53;;;;;;;5.03;2.10;;;13.70;92.70;;;;;;780808;182;26491;-84
2023/10/29 02:53:21;;;;;;;3.40;1.80;;;13.70;92.70;;;;;;782872;180;26466;-88
2023/10/29 02:55:49;;;;;;;5.77;2.27;;;13.70;92.70;;;;;;788666;181;26474;-84
2023/10/29 02:58:18;;;;;;;3.73;1.80;;;13.70;92.40;;;;;;790068;180;26536;-86
2023/10/29 03:00:49;;;;;;;4.40;1.77;;;13.70;92.70;;;;;;787648;180;26577;-85
2023/10/29 03:03:25;;;;;;;3.40;1.80;;;13.70;92.70;;;;;;785517;181;26491;-86
2023/10/29 03:05:56;;;;;;;3.33;1.60;;;13.70;92.70;;;;;;783694;181;26453;-85
2023/10/29 03:08:23;;;;;;;2.20;1.70;;;13.70;92.60;;;;;;788727;179;26556;-85
2023/10/29 03:10:53;;;;;;;2.93;1.90;;;13.80;92.60;;;;;;789886;179;26453;-85
2023/10/29 03:13:28;;;;;;;1.77;1.50;;;13.80;92.50;;;;;;786682;179;27092;-86
2023/10/29 03:15:56;;;;;;;3.23;1.70;;;13.80;92.30;;;;;;790296;180;26522;-89
2023/10/29 03:18:23;;;;;;;1.63;1.50;;;13.80;92.20;;;;;;801955;175;26491;-89
2023/10/29 03:20:49;;;;;;;2.33;1.50;;;13.80;92.30;;;;;;809351;177;27065;-88
2023/10/29 03:23:16;;;;;;;1.70;1.60;;;13.80;92.20;;;;;;810863;177;26458;-88
2023/10/29 03:25:44;;;;;;;3.10;1.80;;;13.90;91.90;;;;;;801738;177;26981;-87
2023/10/29 03:28:09;;;;;;;3.17;1.70;;;13.80;92.10;;;;;;790767;178;26468;-89
2023/10/29 03:30:36;;;;;;;2.33;1.60;;;13.80;92.10;;;;;;794493;180;26493;-90
2023/10/29 03:33:02;;;;;;;3.27;1.73;;;13.90;92.50;;;;;;793926;179;27024;-87
2023/10/29 03:35:29;;;;;;;1.90;1.53;;;14.00;91.90;;;;;;788562;180;26526;-88
2023/10/29 03:37:56;;;;;;;2.37;1.53;;;13.90;92.00;;;;;;791607;180;27009;-88
2023/10/29 03:40:22;;;;;;;2.20;1.43;;;14.00;91.50;;;;;;795159;179;26483;-88
2023/10/29 03:42:49;;;;;;;3.67;2.10;;;14.00;91.60;;;;;;791340;179;26489;-88
2023/10/29 03:45:15;;;;;;;1.97;1.50;;;14.10;91.50;;;;;;797322;179;26465;-88
2023/10/29 03:47:43;;;;;;;1.60;1.50;;;14.00;91.70;;;;;;798322;179;26470;-89
2023/10/29 03:50:09;;;;;;;2.03;1.20;;;14.10;91.30;;;;;;797829;179;26473;-88
2023/10/29 03:52:36;;;;;;;1.60;1.37;;;14.10;91.40;;;;;;793880;179;26467;-88
2023/10/29 03:55:03;;;;;;;1.97;1.40;;;14.10;91.20;;;;;;790575;179;26477;-89
2023/10/29 03:57:29;;;;;;;2.43;1.33;;;14.00;91.50;;;;;;787319;180;26499;-90
2023/10/29 03:59:56;;;;;;;1.57;1.47;;;14.00;91.20;;;;;;794714;180;27085;-88
2023/10/29 04:02:22;;;;;;;3.30;1.60;;;14.00;92.00;;;;;;795199;179;26463;-89
2023/10/29 04:04:49;;;;;;;2.03;1.53;;;14.00;92.30;;;;;;797114;179;27008;-89
2023/10/29 04:07:16;;;;;;;2.53;1.50;;;14.00;91.30;;;;;;792601;177;26471;-88
2023/10/29 04:09:43;;;;;;;3.30;1.53;;;14.00;91.60;;;;;;795691;180;26477;-88
2023/10/29 04:12:09;;;;;;;4.10;1.60;;;14.00;91.40;;;;;;792071;180;26465;-89
2023/10/29 04:14:36;;;;;;;1.77;1.33;;;14.00;91.50;;;;;;792473;180;26485;-87
2023/10/29 04:17:02;;;;;;;2.03;1.50;;;14.00;91.20;;;;;;790676;180;27060;-88
2023/10/29 04:19:29;;;;;;;2.60;1.67;;;14.10;91.40;;;;;;786745;182;26767;-90
2023/10/29 04:21:55;;;;;;;2.50;1.40;;;14.00;91.20;;;;;;788834;180;26467;-88
2023/10/29 04:24:22;;;;;;;4.00;2.27;;;14.00;90.80;;;;;;792623;180;26463;-89
2023/10/29 04:26:48;;;;;;;3.40;1.50;;;14.00;91.20;;;;;;795925;180;26984;-88
2023/10/29 04:29:16;;;;;;;1.80;1.40;;;14.10;90.90;;;;;;789410;180;27041;-88
2023/10/29 04:31:42;;;;;;;4.30;1.97;;;14.00;90.80;;;;;;796041;180;26481;-88
2023/10/29 04:34:08;;;;;;;1.83;1.40;;;14.10;90.60;;;;;;791647;179;26505;-87
2023/10/29 04:36:35;;;;;;;2.47;1.60;;;14.10;90.90;;;;;;796762;179;26455;-87
2023/10/29 04:39:01;;;;;;;1.83;1.40;;;14.10;90.50;;;;;;794573;180;26459;-88
2023/10/29 04:41:28;;;;;;;5.30;1.80;;;14.10;90.30;;;;;;794537;179;26464;-89
2023/10/29 04:43:55;;;;;;;2.97;1.63;;;14.10;90.50;;;;;;793380;179;26454;-89
2023/10/29 04:46:21;;;;;;;2.40;1.37;;;14.10;90.20;;;;;;797690;180;27014;-88
2023/10/29 04:48:53;;;;;;;3.97;1.70;;;14.10;90.40;;;;;;797244;177;26491;-88
2023/10/29 04:51:21;;;;;;;4.30;1.70;;;14.20;90.20;;;;;;793586;179;26468;-91
2023/10/29 04:53:47;;;;;;;3.70;1.80;;;14.20;90.00;;;;;;795807;179;26455;-88
2023/10/29 04:56:13;;;;;;;1.77;1.67;;;14.20;89.90;;;;;;790208;180;26454;-90
2023/10/29 04:58:40;;;;;;;4.23;1.57;;;14.20;89.60;;;;;;787626;179;27008;-89
2023/10/29 05:01:07;;;;;;;2.40;1.23;;;14.20;89.80;;;;;;794216;180;26486;-87
2023/10/29 05:03:33;;;;;;;2.50;1.60;;;14.30;89.60;;;;;;790281;179;27015;-87
2023/10/29 05:06:00;;;;;;;4.60;1.50;;;14.20;89.60;;;;;;793083;179;26478;-87
2023/10/29 05:08:26;;;;;;;2.97;1.40;;;14.30;89.20;;;;;;792584;179;26488;-87
2023/10/29 05:10:53;;;;;;;3.20;1.60;;;14.30;89.20;;;;;;794161;180;26479;-87
2023/10/29 05:13:19;;;;;;;1.87;1.60;;;14.40;89.00;;;;;;792056;179;26453;-88
2023/10/29 05:15:46;;;;;;;3.77;1.63;;;14.40;88.10;;;;;;791172;180;27040;-89
2023/10/29 05:18:13;;;;;;;3.90;1.47;;;14.50;87.40;;;;;;789479;180;26493;-88
2023/10/29 05:20:39;;;;;;;2.70;1.40;;;14.50;88.10;;;;;;792351;180;26483;-88
2023/10/29 05:23:07;;;;;;;1.60;1.43;;;14.50;87.70;;;;;;796158;179;27006;-88
2023/10/29 05:25:34;;;;;;;2.53;1.47;;;14.60;86.80;;;;;;793370;180;26459;-88
2023/10/29 05:27:59;;;;;;;2.77;1.70;;;14.60;86.20;;;;;;792176;180;26472;-88
2023/10/29 05:30:26;;;;;;;1.80;1.40;;;14.60;86.70;;;;;;796209;179;26485;-88
2023/10/29 05:32:52;;;;;;;3.07;1.40;;;14.60;88.10;;;;;;792906;179;26482;-88
2023/10/29 05:35:19;;;;;;;3.37;1.40;;;14.60;87.30;;;;;;793112;180;26473;-87
2023/10/29 05:37:45;;;;;;;3.03;1.73;;;14.50;87.80;;;;;;798039;180;26492;-89
2023/10/29 05:40:12;;;;;;;1.77;1.30;;;14.50;87.50;;;;;;799893;180;27088;-87
2023/10/29 05:42:39;;;;;;;5.53;1.70;;;14.50;86.10;;;;;;792345;179;26467;-88
2023/10/29 05:45:06;;;;;;;4.57;1.50;;;14.50;87.50;;;;;;789067;180;26477;-88
2023/10/29 05:47:33;;;;;;;2.20;1.30;;;14.50;86.30;;;;;;793822;177;26455;-88
2023/10/29 05:49:59;;;;;;;3.07;1.40;;;14.50;86.60;;;;;;798958;175;26477;-90
2023/10/29 05:52:26;;;;;;;2.73;1.30;;;14.60;86.10;;;;;;798053;175;26459;-88
2023/10/29 05:54:53;;;;;;;2.00;1.30;;;14.50;87.20;;;;;;795428;178;26462;-87
2023/10/29 05:57:19;;;;;;;2.17;1.37;;;14.50;87.10;;;;;;790932;179;26498;-88
2023/10/29 05:59:45;;;;;;;2.83;1.40;;;14.40;86.60;;;;;;788866;182;27014;-88
2023/10/29 06:02:12;;;;;;;3.10;1.50;;;14.50;87.30;;;;;;788466;182;26473;-87
2023/10/29 06:04:38;;;;;;;4.93;1.40;;;14.40;86.60;;;;;;790774;179;26447;-88
2023/10/29 06:07:05;;;;;;;1.83;1.40;;;14.40;87.40;;;;;;797265;179;26471;-88
2023/10/29 06:09:32;;;;;;;3.30;1.40;;;14.50;86.50;;;;;;797054;180;27022;-89
2023/10/29 06:11:58;;;;;;;4.23;1.60;;;14.50;86.20;;;;;;796996;180;26486;-88
2023/10/29 06:14:25;;;;;;;2.60;1.57;;;14.50;86.50;;;;;;796956;179;28049;-88
2023/10/29 06:16:56;;;;;;;2.03;1.37;;;14.50;86.20;;;;;;793975;180;26481;-88
2023/10/29 06:19:18;;;;;;;3.30;1.80;;;14.50;86.50;;;;;;789725;180;26441;-89
2023/10/29 06:21:45;;;;;;;2.13;1.53;;;14.50;86.00;;;;;;795887;180;26500;-87
2023/10/29 06:24:11;;;;;;;7.33;1.80;;;14.50;86.30;;;;;;794968;180;26453;-88
2023/10/29 06:26:38;;;;;;;2.27;1.30;;;14.50;85.60;;;;;;793412;180;27021;-87
2023/10/29 06:29:06;;;;;;;4.17;1.60;;;14.50;86.00;;;;;;796889;180;26459;-86
2023/10/29 06:31:33;;;;;;;2.00;1.40;;;14.60;84.40;;;;;;793012;180;28133;-88
2023/10/29 06:33:58;;;;;;;4.37;1.43;;;14.60;84.30;;;;;;795980;179;26458;-88
2023/10/29 06:39:10;;;;;;;4.00;1.43;;;14.50;84.30;;;;;;727535;183;26545;-88
2023/10/29 06:41:36;;;;;;;4.00;1.60;;;14.50;85.90;;;;;;771353;184;26499;-88
2023/10/29 06:44:03;;;;;;;3.20;1.70;;;14.40;84.50;;;;;;758482;184;27056;-87
2023/10/29 06:46:30;;;;;;;5.53;1.60;;;14.30;85.30;;;;;;762986;184;26461;-90
2023/10/29 06:48:58;;;;;;;2.93;1.63;;;14.30;84.80;;;;;;782263;183;26462;-87
2023/10/29 06:51:23;;;;;;;3.17;1.53;;;14.30;85.60;;;;;;773643;183;26469;-88
2023/10/29 06:53:50;;;;;;;4.80;1.40;;;14.30;86.40;;;;;;776999;184;27119;-86
2023/10/29 06:56:18;;;;;;;5.07;1.50;;;14.30;85.30;;;;;;770415;184;26460;-88
2023/10/29 06:58:44;;;;;;;2.80;1.50;;;14.20;85.80;;;;;;776347;183;26495;-88
2023/10/29 07:01:11;;;;;;;6.93;1.50;;;14.20;86.70;;;;;;774789;183;26489;-88
2023/10/29 07:03:38;;;;;;;2.33;1.33;;;14.30;84.70;;;;;;770964;184;26496;-87
2023/10/29 07:06:06;;;;;;;3.47;1.50;;;14.30;85.70;;;;;;795411;179;26476;-88
2023/10/29 07:08:32;;;;;;;3.13;1.50;;;14.30;85.40;;;;;;759050;186;26536;-87
2023/10/29 07:10:59;;;;;;;1.83;1.43;;;14.30;86.00;;;;;;778463;182;26537;-88
2023/10/29 07:13:26;;;;;;;3.53;1.60;;;14.30;87.20;;;;;;783047;180;27111;-87
2023/10/29 07:15:52;;;;;;;2.73;1.50;;;14.20;86.00;;;;;;783414;180;26483;-88
2023/10/29 07:18:19;;;;;;;4.33;1.60;;;14.30;86.60;;;;;;780084;184;27078;-88
2023/10/29 07:20:46;;;;;;;1.83;1.37;;;14.20;86.00;;;;;;778686;181;26500;-88
2023/10/29 07:23:13;;;;;;;2.23;1.80;;;14.20;86.00;;;;;;769474;186;26479;-88
2023/10/29 07:25:39;;;;;;;3.23;1.67;;;14.30;85.90;;;;;;777385;184;27035;-88
2023/10/29 07:28:07;;;;;;;2.60;1.33;;;14.30;85.30;;;;;;782660;184;26521;-87
2023/10/29 07:30:33;;;;;;;4.47;1.50;;;14.30;85.20;;;;;;780266;180;26519;-87
2023/10/29 07:32:59;;;;;;;3.90;1.70;;;14.30;86.10;;;;;;776345;184;26471;-88
2023/10/29 07:35:26;;;;;;;2.93;1.40;;;14.30;85.40;;;;;;768416;187;26503;-88
2023/10/29 07:37:52;;;;;;;3.27;1.30;;;14.20;85.70;;;;;;768800;186;26516;-87
2023/10/29 07:40:19;;;;;;;4.30;1.90;;;14.20;85.90;;;;;;769870;182;27047;-88
2023/10/29 07:42:46;;;;;;;2.43;1.50;;;14.20;85.50;;;;;;788960;179;26479;-88
2023/10/29 07:45:12;;;;;;;3.97;1.40;;;14.10;86.30;;;;;;783124;182;26478;-87
2023/10/29 07:47:39;;;;;;;2.30;1.40;;;14.20;86.90;;;;;;783085;179;27712;-88
2023/10/29 07:50:06;;;;;;;3.83;1.50;;;14.10;86.70;;;;;;783265;180;26509;-87
2023/10/29 07:52:39;;;;;;;3.07;1.37;;;14.20;86.80;;;;;;790362;180;26459;-88
2023/10/29 07:54:59;;;;;;;3.27;1.50;;;14.20;86.50;;;;;;782614;180;26458;-87
2023/10/29 07:57:26;;;;;;;3.63;1.40;;;14.20;87.40;;;;;;783154;184;26480;-86
2023/10/29 07:59:52;;;;;;;3.60;1.73;;;14.20;87.80;;;;;;783525;182;26455;-88
2023/10/29 08:02:19;;;;;;;4.13;1.43;;;14.30;86.70;;;;;;785747;178;26455;-87
2023/10/29 08:04:45;;;;;;;4.27;1.30;;;14.50;85.30;;;;;;795379;180;26474;-87
2023/10/29 08:07:12;;;;;;;1.83;1.20;;;14.60;85.60;;;;;;789082;179;26489;-87
2023/10/29 08:09:40;;;;;;;1.67;1.37;;;14.60;83.50;;;;;;793212;179;27021;-87
2023/10/29 08:12:05;;;;;;;3.30;1.70;;;14.80;82.30;;;;;;758937;187;26482;-88
2023/10/29 08:14:32;;;;;;;2.93;1.70;;;14.80;82.60;;;;;;792220;179;27050;-89
2023/10/29 08:16:59;;;;;;;2.77;1.50;;;14.80;82.30;;;;;;797978;179;27042;-87
2023/10/29 08:19:27;;;;;;;2.10;1.27;;;15.00;81.30;;;;;;787602;181;26501;-88
2023/10/29 08:21:52;;;;;;;3.10;1.50;;;14.90;82.10;;;;;;785736;178;26466;-87
2023/10/29 08:24:18;;;;;;;2.40;1.43;;;15.00;80.90;;;;;;788024;180;26466;-88
2023/10/29 08:26:45;;;;;;;3.50;1.40;;;15.00;81.20;;;;;;792372;180;26479;-88
2023/10/29 08:29:12;;;;;;;2.97;1.60;;;15.00;81.10;;;;;;798352;180;26443;-88
2023/10/29 08:34:44;;;;;;;3.47;1.30;;;15.10;80.30;;;;;;787580;180;26778;-89
2023/10/29 08:37:13;;;;;;;3.10;1.40;;;15.10;80.60;;;;;;786487;180;26478;-87
2023/10/29 08:39:40;;;;;;;3.60;1.93;;;15.10;80.80;;;;;;791858;180;26448;-87
2023/10/29 08:42:07;;;;;;;4.40;1.40;;;15.10;80.70;;;;;;792473;180;26444;-87
2023/10/29 08:47:23;;;;;;;3.33;1.67;;;15.30;80.60;;;;;;778734;181;26481;-89
2023/10/29 08:49:55;;;;;;;2.23;1.40;;;15.30;81.10;;;;;;773157;181;26449;-87
2023/10/29 08:52:34;;;;;;;3.80;1.63;;;15.30;80.40;;;;;;777159;176;26464;-89
2023/10/29 08:55:00;;;;;;;3.80;1.90;;;15.20;79.90;;;;;;783305;179;26536;-89
2023/10/29 08:57:27;;;;;;;6.03;2.63;;;15.20;80.20;;;;;;789054;178;26473;-89
2023/10/29 08:59:54;;;;;;;4.47;2.30;;;15.40;80.90;;;;;;785182;180;26469;-88
2023/10/29 09:02:20;;;;;;;2.77;1.87;;;15.40;80.20;;;;;;788392;180;26441;-88
2023/10/29 09:04:47;;;;;;;2.03;1.63;;;15.40;80.40;;;;;;789338;179;26495;-88
2023/10/29 09:07:13;;;;;;;3.37;1.40;;;15.30;79.50;;;;;;788679;181;27001;-88
2023/10/29 09:09:49;;;;;;;3.33;1.40;;;15.30;79.50;;;;;;775281;186;26471;-88
2023/10/29 09:12:16;;;;;;;3.77;1.70;;;15.30;79.50;;;;;;766159;187;26501;-89
2023/10/29 09:14:42;;;;;;;2.53;1.60;;;15.30;81.00;;;;;;766024;187;26501;-87
2023/10/29 09:33:44;;;;;;;3.53;1.47;;;15.70;76.20;;;;;;739523;176;26618;-89
2023/10/29 09:36:10;;;;;;;3.77;1.73;;;15.70;76.10;;;;;;776607;179;26465;-89
2023/10/29 09:38:37;;;;;;;3.13;1.50;;;15.70;77.00;;;;;;777332;180;26499;-88
2023/10/29 09:41:04;;;;;;;3.10;1.30;;;15.70;77.80;;;;;;784433;181;26455;-89
2023/10/29 09:43:46;;;;;;;2.37;1.40;;;15.50;77.00;;;;;;778847;178;27009;-89
2023/10/29 09:46:11;;;;;;;6.33;1.73;;;15.40;78.30;;;;;;775356;182;26475;-90
2023/10/29 09:59:41;;;;;;;2.87;1.70;;;15.40;75.90;;;;;;737420;174;26449;-87
2023/10/29 10:02:08;;;;;;;4.67;1.90;;;15.60;77.80;;;;;;790313;182;27080;-87
2023/10/29 10:04:34;;;;;;;4.13;1.90;;;15.80;76.30;;;;;;793672;178;26448;-89
2023/10/29 10:09:52;;;;;;;5.20;3.30;;;15.80;73.70;;;;;;796151;180;27009;-88
2023/10/29 10:12:18;;;;;;;6.43;2.10;;;15.70;74.30;;;;;;796566;178;26508;-89
2023/10/29 10:14:45;;;;;;;3.83;1.67;;;15.60;76.50;;;;;;801998;178;26454;-89
2023/10/29 10:17:12;;;;;;;3.63;1.70;;;15.50;74.30;;;;;;802316;176;26395;-88
2023/10/29 10:19:38;;;;;;;3.03;1.70;;;15.50;76.30;;;;;;802070;176;26453;-88
2023/10/29 10:22:04;;;;;;;5.00;2.00;;;15.50;76.70;;;;;;815584;176;26354;-88
2023/10/29 10:24:55;;;;;;;;;;;;;;;;;;;;;
2023/10/29 10:27:32;;;;;;;3.43;1.77;;;15.70;76.20;;;;;;807956;177;26359;-90
2023/10/29 10:30:01;;;;;;;5.27;1.90;;;15.90;75.20;;;;;;783599;177;26564;-88
2023/10/29 10:32:50;;;;;;;2.87;1.70;;;16.00;75.30;;;;;;775720;185;26491;-90
2023/10/29 10:35:45;;;;;;;3.33;1.80;;;16.20;73.40;;;;;;775978;184;26491;-88
2023/10/29 10:41:11;;;;;;;4.73;1.97;;;16.10;72.40;;;;;;740981;175;26473;-89
2023/10/29 10:43:46;;;;;;;18.23;9.33;;;16.10;73.60;;;;;;790979;178;26473;-89
2023/10/29 10:46:37;;;;;;;3.17;1.20;;;16.10;73.90;;;;;;782227;182;26477;-89
2023/10/29 10:49:14;;;;;;;2.73;1.50;;;15.90;75.60;;;;;;790674;175;32242;-89
2023/10/29 10:52:05;;;;;;;19.50;12.13;;;15.80;75.70;;;;;;776097;184;26485;-89
2023/10/29 10:54:37;;;;;;;5.67;2.83;;;15.90;73.80;;;;;;793465;179;26998;-88
2023/10/29 10:57:09;;;;;;;4.30;1.70;;;15.90;74.30;;;;;;800150;177;26458;-88
2023/10/29 10:59:41;;;;;;;3.23;1.40;;;16.10;76.00;;;;;;803372;177;26482;-89
2023/10/29 11:10:42;;;;;;;35.60;22.87;;;16.40;74.70;;;;;;730922;181;28354;31
2023/10/29 11:13:26;;;;;;;34.07;22.27;;;16.50;74.10;;;;;;770233;183;26458;-89
2023/10/29 11:15:55;;;;;;;4.60;2.90;;;16.50;75.60;;;;;;766363;186;27111;-89
2023/10/29 11:18:37;;;;;;;5.17;3.40;;;16.60;75.50;;;;;;785618;181;26453;-88
2023/10/29 11:21:13;;;;;;;8.03;4.93;;;16.50;74.00;;;;;;792016;177;26512;-89
2023/10/29 11:23:45;;;;;;;11.33;7.77;;;16.30;75.50;;;;;;757873;187;27080;-88
2023/10/29 11:26:20;;;;;;;34.87;22.97;;;16.10;76.50;;;;;;776284;181;27052;-88
2023/10/29 11:28:56;;;;;;;2.97;1.47;;;16.10;77.20;;;;;;780001;181;26443;-88
2023/10/29 11:31:29;;;;;;;15.47;10.43;;;16.10;77.70;;;;;;786194;181;27045;-89
2023/10/29 11:34:29;;;;;;;18.07;11.67;;;16.10;77.50;;;;;;764991;186;26541;-88
2023/10/29 11:36:58;;;;;;;15.90;10.17;;;16.20;78.40;;;;;;763233;183;26455;-89
2023/10/29 11:39:33;;;;;;;4.60;2.47;;;16.30;77.30;;;;;;778753;180;26471;-89
2023/10/29 11:42:15;;;;;;;23.67;14.60;;;16.50;76.10;;;;;;767041;184;26488;-89
2023/10/29 11:44:51;;;;;;;9.27;5.90;;;16.90;75.50;;;;;;780862;181;26994;-89
2023/10/29 11:47:43;;;;;;;3.93;1.90;;;17.00;73.50;;;;;;775620;184;26455;-91
2023/10/29 11:50:16;;;;;;;2.37;1.70;;;17.00;75.80;;;;;;776319;183;26481;-91
2023/10/29 11:52:46;;;;;;;8.33;3.90;;;17.00;74.20;;;;;;778491;178;26494;-89
2023/10/29 11:55:14;;;;;;;11.13;7.67;;;17.10;74.00;;;;;;761398;187;26519;-88
2023/10/29 11:57:40;;;;;;;3.50;2.33;;;17.20;74.50;;;;;;768167;180;26468;-89
2023/10/29 12:00:08;;;;;;;19.57;12.77;;;17.20;72.80;;;;;;795491;175;26441;-90
2023/10/29 12:02:34;;;;;;;6.93;4.43;;;16.90;75.10;;;;;;804792;177;26432;-89
2023/10/29 12:21:52;;;;;;;95.83;59.33;;;16.20;77.80;;;;;;738570;176;27040;-89
2023/10/29 12:24:19;;;;;;;23.27;15.03;;;16.20;80.00;;;;;;796609;177;26531;-90
2023/10/29 12:26:45;;;;;;;4.03;2.10;;;16.30;78.40;;;;;;793643;180;26443;-90
2023/10/29 12:29:18;;;;;;;3.87;2.10;;;16.40;79.20;;;;;;793902;179;27000;-90
2023/10/29 12:31:47;;;;;;;3.20;1.60;;;16.40;77.10;;;;;;793633;180;26461;-90
2023/10/29 12:34:14;;;;;;;21.67;14.97;;;16.40;77.70;;;;;;794304;179;26449;-89
2023/10/29 12:44:58;;;;;;;2.17;1.70;;;16.40;74.50;;;;;;741905;173;26473;-93
2023/10/29 12:47:34;;;;;;;55.70;36.20;;;16.30;75.00;;;;;;801164;178;26440;-90
2023/10/29 12:50:01;;;;;;;4.30;2.73;;;16.20;74.70;;;;;;799757;179;26465;-90
2023/10/29 12:52:28;;;;;;;37.50;23.10;;;16.10;76.00;;;;;;799748;179;26416;-90
2023/10/29 12:54:54;;;;;;;8.40;5.83;;;16.10;77.50;;;;;;796521;177;26447;-91
2023/10/29 12:57:22;;;;;;;14.20;9.27;;;16.00;76.60;;;;;;793663;181;26412;-89
2023/10/29 12:59:48;;;;;;;7.70;5.03;;;16.00;76.80;;;;;;794222;180;27174;-89
2023/10/29 13:02:27;;;;;;;14.93;9.73;;;16.00;76.70;;;;;;794546;177;26494;-89
2023/10/29 13:04:53;;;;;;;3.47;2.60;;;15.90;76.70;;;;;;795880;179;26966;-89
2023/10/29 13:07:21;;;;;;;2.10;1.50;;;15.90;78.20;;;;;;795527;179;26424;-91
2023/10/29 13:09:48;;;;;;;2.00;1.53;;;15.80;80.00;;;;;;793280;180;26439;-91
2023/10/29 13:12:26;;;;;;;2.30;1.40;;;15.90;81.00;;;;;;792916;177;26425;-90
2023/10/29 13:14:52;;;;;;;6.90;4.03;;;16.20;83.30;;;;;;791935;181;26447;-90
2023/10/29 13:17:19;;;;;;;19.57;14.10;;;16.40;83.60;;;;;;791458;181;26611;-89
2023/10/29 13:19:45;;;;;;;8.70;6.67;;;16.90;80.30;;;;;;793953;180;26404;-89
2023/10/29 13:22:18;;;;;;;4.37;3.33;;;17.10;78.80;;;;;;794080;180;26453;-89
2023/10/29 13:24:44;;;;;;;2.27;1.60;;;17.00;79.30;;;;;;793643;179;27003;-89
2023/10/29 13:27:11;;;;;;;1.70;1.33;;;16.70;80.60;;;;;;794269;181;26493;-90
2023/10/29 13:29:39;;;;;;;4.53;2.80;;;16.10;80.20;;;;;;794647;181;26464;-89
2023/10/29 13:32:06;;;;;;;5.13;3.43;;;15.90;83.20;;;;;;793705;180;26412;-89
2023/10/29 13:34:31;;;;;;;2.23;1.50;;;15.90;84.50;;;;;;793797;177;26417;-89
2023/10/29 13:37:00;;;;;;;7.07;4.47;;;15.80;83.00;;;;;;794113;181;26457;-91
2023/10/29 13:39:31;;;;;;;1.97;1.50;;;15.70;82.70;;;;;;794170;181;26483;-89
2023/10/29 13:42:07;;;;;;;3.43;1.63;;;15.80;83.00;;;;;;792122;181;26396;-90
2023/10/29 13:44:34;;;;;;;2.20;1.87;;;15.90;84.00;;;;;;793026;181;26468;-90
2023/10/29 13:47:01;;;;;;;4.00;2.20;;;16.00;82.60;;;;;;790912;181;26483;-89
2023/10/29 13:49:27;;;;;;;2.77;1.53;;;16.00;82.60;;;;;;792723;177;26446;-89
2023/10/29 13:51:54;;;;;;;6.07;3.20;;;16.10;82.20;;;;;;792843;181;26404;-92
2023/10/29 13:54:20;;;;;;;3.80;2.20;;;16.00;81.10;;;;;;793267;181;26424;-90
2023/10/29 13:56:47;;;;;;;21.93;13.97;;;15.90;81.40;;;;;;793487;181;26441;-90
2023/10/29 13:59:14;;;;;;;2.17;1.70;;;15.80;81.60;;;;;;793332;180;26409;-90
2023/10/29 14:01:42;;;;;;;2.50;1.80;;;15.80;82.50;;;;;;792824;179;27445;-90
2023/10/29 14:04:08;;;;;;;2.07;1.30;;;15.80;81.30;;;;;;794311;180;26438;-90
2023/10/29 14:06:34;;;;;;;4.53;2.90;;;15.80;82.00;;;;;;794286;181;26495;-89
2023/10/29 14:09:02;;;;;;;19.60;11.70;;;15.90;82.00;;;;;;794255;181;27024;-90